Time;durP1;ratioP1;P1;durP2;ratioP2;P2;SDS_P1;SDS_P2;PMS_P1;PMS_P2;Temp;Humidity;BMP_temperature;BMP_pressure;BME280_temperature;BME280_humidity;BME280_pressure;Samples;Min_cycle;Max_cycle;Signal;HPM_P1;HPM_P2
2021/11/03 00:00:07;;;;;;;;;;;23.70;49.10;;;;;;1560596;74;1900;-61
2021/11/03 00:02:09;;;;;;;;;;;23.70;49.10;;;;;;1557770;74;765;-59
2021/11/03 00:04:11;;;;;;;;;;;23.70;49.10;;;;;;1569896;74;675;-60
2021/11/03 00:06:15;;;;;;;;;;;23.60;49.00;;;;;;1565254;74;1118;-58
2021/11/03 00:08:21;;;;;;;;;;;23.60;49.10;;;;;;1567336;74;688;-57
2021/11/03 00:10:23;;;;;;;;;;;23.60;49.10;;;;;;1568257;74;726;-57
2021/11/03 00:12:25;;;;;;;;;;;23.60;49.20;;;;;;1567598;74;743;-58
2021/11/03 00:14:26;;;;;;;;;;;23.60;49.20;;;;;;1575810;74;688;-59
2021/11/03 00:16:28;;;;;;;;;;;23.60;49.30;;;;;;1566969;74;1131;-61
2021/11/03 00:18:30;;;;;;;;;;;23.60;49.20;;;;;;1565865;74;738;-61
2021/11/03 00:20:32;;;;;;;;;;;23.60;49.30;;;;;;1565284;74;1925;-59
2021/11/03 00:22:34;;;;;;;;;;;23.60;49.30;;;;;;1557001;74;768;-61
2021/11/03 00:24:37;;;;;;;;;;;23.60;49.30;;;;;;1561833;74;739;-61
2021/11/03 00:26:39;;;;;;;;;;;23.60;49.40;;;;;;1558476;74;1060;-60
2021/11/03 00:28:41;;;;;;;;;;;23.60;49.40;;;;;;1550039;74;836;-58
2021/11/03 00:30:43;;;;;;;;;;;23.60;49.40;;;;;;1549902;74;806;-60
2021/11/03 00:32:45;;;;;;;;;;;23.60;49.40;;;;;;1560186;74;718;-60
2021/11/03 00:34:47;;;;;;;;;;;23.60;49.50;;;;;;1558382;74;1210;-59
2021/11/03 00:36:49;;;;;;;;;;;23.60;49.60;;;;;;1558287;74;907;-59
2021/11/03 00:38:51;;;;;;;;;;;23.60;49.60;;;;;;1559372;74;716;-59
2021/11/03 00:40:53;;;;;;;;;;;23.60;49.60;;;;;;1563389;74;1932;-57
2021/11/03 00:42:54;;;;;;;;;;;23.60;49.60;;;;;;1559659;74;795;-56
2021/11/03 00:44:56;;;;;;;;;;;23.60;49.50;;;;;;1563623;74;1141;-59
2021/11/03 00:46:58;;;;;;;;;;;23.60;49.50;;;;;;1550714;74;768;-59
2021/11/03 00:49:00;;;;;;;;;;;23.60;49.50;;;;;;1555172;74;778;-60
2021/11/03 00:51:03;;;;;;;;;;;23.60;49.60;;;;;;1559847;74;775;-59
2021/11/03 00:53:05;;;;;;;;;;;23.60;49.50;;;;;;1559216;74;699;-59
2021/11/03 00:55:07;;;;;;;;;;;23.60;49.60;;;;;;1559127;74;1187;-61
2021/11/03 00:57:08;;;;;;;;;;;23.60;49.60;;;;;;1559225;74;772;-61
2021/11/03 00:59:10;;;;;;;;;;;23.60;49.60;;;;;;1563189;74;746;-61
2021/11/03 01:01:12;;;;;;;;;;;23.60;49.70;;;;;;1556171;74;1950;-60
2021/11/03 01:03:14;;;;;;;;;;;23.60;49.60;;;;;;1551480;74;750;-59
2021/11/03 01:05:17;;;;;;;;;;;23.60;49.60;;;;;;1552700;74;1123;-56
2021/11/03 01:07:19;;;;;;;;;;;23.60;49.70;;;;;;1559361;74;772;-60
2021/11/03 01:09:21;;;;;;;;;;;23.60;49.60;;;;;;1586574;74;703;-58
2021/11/03 01:11:23;;;;;;;;;;;23.60;49.70;;;;;;1558085;74;690;-57
2021/11/03 01:13:25;;;;;;;;;;;23.60;49.60;;;;;;1567972;74;732;-58
2021/11/03 01:15:26;;;;;;;;;;;23.60;49.70;;;;;;1573054;74;1147;-56
2021/11/03 01:17:28;;;;;;;;;;;23.60;49.60;;;;;;1576185;74;777;-60
2021/11/03 01:19:30;;;;;;;;;;;23.60;49.60;;;;;;1560759;74;793;-61
2021/11/03 01:21:32;;;;;;;;;;;23.60;49.70;;;;;;1564141;74;1959;-58
2021/11/03 01:23:34;;;;;;;;;;;23.60;49.70;;;;;;1561553;74;779;-59
2021/11/03 01:25:36;;;;;;;;;;;23.60;49.70;;;;;;1582671;74;1214;-58
2021/11/03 01:27:38;;;;;;;;;;;23.60;49.80;;;;;;1581637;74;734;-60
2021/11/03 01:29:40;;;;;;;;;;;23.60;49.80;;;;;;1588148;74;803;-60
2021/11/03 01:31:42;;;;;;;;;;;23.50;49.80;;;;;;1575512;74;793;-58
2021/11/03 01:33:44;;;;;;;;;;;23.60;49.80;;;;;;1571020;74;734;-57
2021/11/03 01:35:46;;;;;;;;;;;23.60;49.80;;;;;;1571629;74;1114;-59
2021/11/03 01:37:48;;;;;;;;;;;23.60;49.70;;;;;;1557974;74;727;-60
2021/11/03 01:39:50;;;;;;;;;;;23.60;49.70;;;;;;1576605;74;600;-59
2021/11/03 01:41:52;;;;;;;;;;;23.60;49.70;;;;;;1580568;74;1931;-57
2021/11/03 01:44:01;;;;;;;;;;;23.60;49.70;;;;;;1577967;74;722;-61
2021/11/03 01:46:21;;;;;;;;;;;23.60;49.70;;;;;;1576368;74;1173;-60
2021/11/03 01:48:23;;;;;;;;;;;23.60;49.70;;;;;;1575065;74;741;-58
2021/11/03 01:50:26;;;;;;;;;;;23.60;49.70;;;;;;1564202;74;803;-57
2021/11/03 01:52:28;;;;;;;;;;;23.60;49.70;;;;;;1579488;74;797;-59
2021/11/03 01:54:35;;;;;;;;;;;23.70;49.80;;;;;;1584930;74;794;-61
2021/11/03 01:56:37;;;;;;;;;;;23.70;49.80;;;;;;1565463;74;1129;-60
2021/11/03 01:58:53;;;;;;;;;;;23.60;49.60;;;;;;1581282;74;765;-60
2021/11/03 02:00:55;;;;;;;;;;;23.70;49.70;;;;;;1568783;74;1917;-59
2021/11/03 02:02:59;;;;;;;;;;;23.60;49.50;;;;;;1562578;74;718;-59
2021/11/03 02:05:01;;;;;;;;;;;23.60;49.50;;;;;;1567397;74;2143;-58
2021/11/03 02:07:03;;;;;;;;;;;23.60;49.50;;;;;;1556765;74;664;-61
2021/11/03 02:09:05;;;;;;;;;;;23.70;49.70;;;;;;1569956;74;608;-59
2021/11/03 02:11:07;;;;;;;;;;;23.60;49.50;;;;;;1574175;74;794;-60
2021/11/03 02:13:10;;;;;;;;;;;23.60;49.40;;;;;;1567645;74;731;-60
2021/11/03 02:15:11;;;;;;;;;;;23.70;49.60;;;;;;1571842;74;1132;-59
2021/11/03 02:17:14;;;;;;;;;;;23.60;49.40;;;;;;1540400;76;1397;-59
2021/11/03 02:19:17;;;;;;;;;;;23.60;49.40;;;;;;1555398;74;738;-58
2021/11/03 02:21:21;;;;;;;;;;;23.60;49.40;;;;;;1560355;74;2001;-58
2021/11/03 02:23:42;;;;;;;;;;;23.60;49.30;;;;;;1563325;74;1919;-60
2021/11/03 02:25:46;;;;;;;;;;;23.60;49.30;;;;;;1530394;77;800;-66
2021/11/03 02:27:49;;;;;;;;;;;23.60;49.20;;;;;;1512157;77;1567;-66
2021/11/03 02:29:51;;;;;;;;;;;23.60;49.20;;;;;;1524145;77;721;-66
2021/11/03 02:31:54;;;;;;;;;;;23.60;49.30;;;;;;1531574;77;749;-66
2021/11/03 02:33:56;;;;;;;;;;;23.60;49.20;;;;;;1518194;76;1214;-66
2021/11/03 02:35:59;;;;;;;;;;;23.70;49.30;;;;;;1527645;76;710;-67
2021/11/03 02:38:01;;;;;;;;;;;23.60;49.20;;;;;;1510910;76;722;-66
2021/11/03 02:40:11;;;;;;;;;;;23.60;49.20;;;;;;1515750;76;591;-66
2021/11/03 02:42:13;;;;;;;;;;;23.60;49.20;;;;;;1528464;76;1968;-66
2021/11/03 02:44:15;;;;;;;;;;;23.60;49.20;;;;;;1524121;76;1099;-65
2021/11/03 02:46:17;;;;;;;;;;;23.60;49.20;;;;;;1534521;76;653;-66
2021/11/03 02:48:19;;;;;;;;;;;23.60;49.20;;;;;;1510349;76;807;-66
2021/11/03 02:50:21;;;;;;;;;;;23.60;49.20;;;;;;1516545;76;742;-66
2021/11/03 02:52:25;;;;;;;;;;;23.60;49.20;;;;;;1523819;76;793;-68
2021/11/03 02:54:27;;;;;;;;;;;23.60;49.20;;;;;;1524177;76;1192;-67
2021/11/03 02:56:30;;;;;;;;;;;23.60;49.20;;;;;;1528138;76;739;-67
2021/11/03 02:58:33;;;;;;;;;;;23.60;49.20;;;;;;1518062;76;730;-67
2021/11/03 03:00:35;;;;;;;;;;;23.60;49.20;;;;;;1508371;76;1928;-68
2021/11/03 03:02:37;;;;;;;;;;;23.50;49.20;;;;;;1530226;76;716;-67
2021/11/03 03:04:40;;;;;;;;;;;23.60;49.20;;;;;;1519519;76;1145;-66
2021/11/03 03:06:42;;;;;;;;;;;23.50;49.20;;;;;;1519071;76;764;-67
2021/11/03 03:08:44;;;;;;;;;;;23.60;49.30;;;;;;1506649;76;818;-68
2021/11/03 03:10:45;;;;;;;;;;;23.60;49.30;;;;;;1516846;76;714;-68
2021/11/03 03:12:47;;;;;;;;;;;23.60;49.20;;;;;;1519430;76;733;-76
2021/11/03 03:14:50;;;;;;;;;;;23.60;49.40;;;;;;1528800;76;1130;-77
2021/11/03 03:16:52;;;;;;;;;;;23.60;49.30;;;;;;1512084;76;751;-76
2021/11/03 03:18:54;;;;;;;;;;;23.60;49.30;;;;;;1505789;76;736;-76
2021/11/03 03:20:56;;;;;;;;;;;23.60;49.30;;;;;;1512460;76;1927;-76
2021/11/03 03:22:58;;;;;;;;;;;23.60;49.30;;;;;;1505676;76;737;-76
2021/11/03 03:25:00;;;;;;;;;;;23.60;49.30;;;;;;1507015;76;1120;-76
2021/11/03 03:27:02;;;;;;;;;;;23.60;49.20;;;;;;1505922;76;745;-76
2021/11/03 03:29:05;;;;;;;;;;;23.60;49.30;;;;;;1516177;76;785;-74
2021/11/03 03:31:07;;;;;;;;;;;23.60;49.20;;;;;;1509805;76;718;-76
2021/11/03 03:33:09;;;;;;;;;;;23.60;49.30;;;;;;1509240;76;725;-76
2021/11/03 03:35:10;;;;;;;;;;;23.60;49.30;;;;;;1531758;76;1107;-76
2021/11/03 03:37:12;;;;;;;;;;;23.60;49.30;;;;;;1529235;76;740;-76
2021/11/03 03:39:15;;;;;;;;;;;23.60;49.30;;;;;;1525924;76;721;-76
2021/11/03 03:41:17;;;;;;;;;;;23.60;49.30;;;;;;1516044;76;1910;-75
2021/11/03 03:43:18;;;;;;;;;;;23.70;49.40;;;;;;1521093;76;1139;-76
2021/11/03 03:45:20;;;;;;;;;;;23.60;49.30;;;;;;1528350;76;730;-76
2021/11/03 03:47:22;;;;;;;;;;;23.60;49.30;;;;;;1518349;76;696;-76
2021/11/03 03:49:24;;;;;;;;;;;23.60;49.20;;;;;;1515278;76;773;-75
2021/11/03 03:51:26;;;;;;;;;;;23.60;49.20;;;;;;1522483;76;728;-72
2021/11/03 03:53:28;;;;;;;;;;;23.70;49.30;;;;;;1519590;76;1143;-74
2021/11/03 03:55:30;;;;;;;;;;;23.70;49.30;;;;;;1529035;76;818;-73
2021/11/03 03:57:32;;;;;;;;;;;23.70;49.30;;;;;;1525268;76;658;-73
2021/11/03 03:59:34;;;;;;;;;;;23.70;49.40;;;;;;1506835;76;783;-73
2021/11/03 04:01:36;;;;;;;;;;;23.70;49.40;;;;;;1505896;76;1931;-73
2021/11/03 04:03:37;;;;;;;;;;;23.80;49.40;;;;;;1520768;76;1130;-74
2021/11/03 04:05:43;;;;;;;;;;;23.70;49.30;;;;;;1521193;76;602;-74
2021/11/03 04:07:43;;;;;;;;;;;23.80;49.30;;;;;;1516137;76;1739;-74
2021/11/03 04:09:45;;;;;;;;;;;23.80;49.40;;;;;;1526783;76;823;-74
2021/11/03 04:11:47;;;;;;;;;;;23.90;49.40;;;;;;1524581;76;726;-71
2021/11/03 04:13:49;;;;;;;;;;;23.90;49.30;;;;;;1528617;76;1134;-73
2021/11/03 04:15:50;;;;;;;;;;;23.90;49.40;;;;;;1530597;76;752;-73
2021/11/03 04:17:52;;;;;;;;;;;23.80;49.20;;;;;;1528673;76;1087;-73
2021/11/03 04:19:54;;;;;;;;;;;23.90;49.30;;;;;;1527523;76;677;-73
2021/11/03 04:21:56;;;;;;;;;;;23.90;49.30;;;;;;1534625;76;1924;-73
2021/11/03 04:23:58;;;;;;;;;;;23.90;49.20;;;;;;1519732;76;1101;-73
2021/11/03 04:26:00;;;;;;;;;;;23.90;49.20;;;;;;1513846;76;819;-73
2021/11/03 04:28:03;;;;;;;;;;;24.00;49.10;;;;;;1522926;76;729;-73
2021/11/03 04:30:05;;;;;;;;;;;24.00;49.00;;;;;;1523720;76;702;-74
2021/11/03 04:32:07;;;;;;;;;;;23.90;49.00;;;;;;1514970;76;744;-73
2021/11/03 04:34:09;;;;;;;;;;;23.90;49.10;;;;;;1536276;76;1182;-73
2021/11/03 04:36:11;;;;;;;;;;;23.90;49.20;;;;;;1528252;76;711;-74
2021/11/03 04:38:13;;;;;;;;;;;23.90;49.20;;;;;;1528585;76;820;-74
2021/11/03 04:40:15;;;;;;;;;;;23.90;49.20;;;;;;1520156;76;731;-73
2021/11/03 04:42:17;;;;;;;;;;;23.90;49.20;;;;;;1518490;76;1934;-74
2021/11/03 04:44:19;;;;;;;;;;;23.80;49.20;;;;;;1531292;76;1159;-73
2021/11/03 04:46:21;;;;;;;;;;;23.80;49.20;;;;;;1533804;76;759;-73
2021/11/03 04:48:23;;;;;;;;;;;23.80;49.20;;;;;;1521594;76;763;-74
2021/11/03 04:50:28;;;;;;;;;;;23.80;49.20;;;;;;1528663;76;758;-73
2021/11/03 04:52:30;;;;;;;;;;;23.80;49.30;;;;;;1515435;76;749;-74
2021/11/03 04:54:32;;;;;;;;;;;23.80;49.30;;;;;;1530060;76;1182;-75
2021/11/03 04:56:33;;;;;;;;;;;23.80;49.30;;;;;;1521407;76;797;-75
2021/11/03 04:58:35;;;;;;;;;;;23.70;49.40;;;;;;1518013;76;719;-75
2021/11/03 05:00:38;;;;;;;;;;;23.70;49.40;;;;;;1503155;76;791;-75
2021/11/03 05:02:40;;;;;;;;;;;23.70;49.40;;;;;;1513499;76;1930;-75
2021/11/03 05:04:42;;;;;;;;;;;23.70;49.50;;;;;;1511852;76;1133;-75
2021/11/03 05:06:45;;;;;;;;;;;23.70;49.50;;;;;;1507659;76;693;-75
2021/11/03 05:08:47;;;;;;;;;;;23.80;49.50;;;;;;1517183;76;721;-75
2021/11/03 05:10:49;;;;;;;;;;;23.70;49.50;;;;;;1511602;76;907;-74
2021/11/03 05:12:51;;;;;;;;;;;23.70;49.50;;;;;;1523686;76;741;-75
2021/11/03 05:14:53;;;;;;;;;;;23.70;49.50;;;;;;1510459;76;1218;-75
2021/11/03 05:16:55;;;;;;;;;;;23.60;49.40;;;;;;1524947;76;721;-74
2021/11/03 05:18:57;;;;;;;;;;;23.70;49.60;;;;;;1528554;76;780;-74
2021/11/03 05:20:59;;;;;;;;;;;23.70;49.60;;;;;;1540638;76;756;-75
2021/11/03 05:23:02;;;;;;;;;;;23.70;49.60;;;;;;1528510;76;1954;-75
2021/11/03 05:25:04;;;;;;;;;;;23.70;49.60;;;;;;1517537;76;1158;-75
2021/11/03 05:27:06;;;;;;;;;;;23.70;49.70;;;;;;1527303;76;742;-75
2021/11/03 05:29:08;;;;;;;;;;;23.70;49.70;;;;;;1529015;76;760;-75
2021/11/03 05:31:10;;;;;;;;;;;23.70;49.70;;;;;;1515803;76;828;-74
2021/11/03 05:33:12;;;;;;;;;;;23.70;49.70;;;;;;1528574;76;727;-75
2021/11/03 05:35:14;;;;;;;;;;;23.70;49.70;;;;;;1518839;76;1023;-75
2021/11/03 05:37:16;;;;;;;;;;;23.60;49.50;;;;;;1528318;76;773;-75
2021/11/03 05:39:18;;;;;;;;;;;23.70;49.70;;;;;;1528600;76;722;-74
2021/11/03 05:41:20;;;;;;;;;;;23.70;49.70;;;;;;1527740;76;794;-75
2021/11/03 05:43:22;;;;;;;;;;;23.70;49.70;;;;;;1529366;76;1933;-75
2021/11/03 05:45:24;;;;;;;;;;;23.70;49.80;;;;;;1524346;76;765;-75
2021/11/03 05:47:27;;;;;;;;;;;23.70;49.80;;;;;;1525846;76;793;-74
2021/11/03 05:49:30;;;;;;;;;;;23.70;49.80;;;;;;1518086;76;685;-74
2021/11/03 05:51:32;;;;;;;;;;;23.70;49.80;;;;;;1518670;76;758;-75
2021/11/03 05:53:37;;;;;;;;;;;23.70;49.80;;;;;;1528213;76;1168;-74
2021/11/03 05:55:39;;;;;;;;;;;23.70;49.80;;;;;;1526377;76;1577;-74
2021/11/03 05:57:42;;;;;;;;;;;23.60;49.70;;;;;;1525714;76;718;-75
2021/11/03 05:59:44;;;;;;;;;;;23.70;49.80;;;;;;1528322;76;725;-74
2021/11/03 06:01:45;;;;;;;;;;;23.70;49.80;;;;;;1528516;76;1934;-72
2021/11/03 06:03:47;;;;;;;;;;;23.70;49.90;;;;;;1522581;76;1152;-73
2021/11/03 06:05:49;;;;;;;;;;;23.70;49.90;;;;;;1534864;76;655;-73
2021/11/03 06:07:52;;;;;;;;;;;23.70;49.80;;;;;;1522438;76;684;-73
2021/11/03 06:09:55;;;;;;;;;;;23.70;49.90;;;;;;1511858;76;742;-72
2021/11/03 06:11:57;;;;;;;;;;;23.70;49.80;;;;;;1521473;76;692;-72
2021/11/03 06:13:59;;;;;;;;;;;23.70;49.80;;;;;;1527777;76;1131;-72
2021/11/03 06:16:01;;;;;;;;;;;23.80;49.70;;;;;;1516957;76;758;-72
2021/11/03 06:18:03;;;;;;;;;;;23.80;49.80;;;;;;1520011;76;655;-72
2021/11/03 06:20:05;;;;;;;;;;;23.80;49.70;;;;;;1527432;76;706;-72
2021/11/03 06:22:07;;;;;;;;;;;23.70;49.70;;;;;;1525932;76;1937;-72
2021/11/03 06:24:09;;;;;;;;;;;23.70;49.70;;;;;;1528611;76;1143;-72
2021/11/03 06:26:14;;;;;;;;;;;23.70;49.60;;;;;;1515413;76;763;-73
2021/11/03 06:28:16;;;;;;;;;;;23.70;49.70;;;;;;1526670;76;759;-72
2021/11/03 06:30:18;;;;;;;;;;;23.70;49.70;;;;;;1528583;76;804;-71
2021/11/03 06:32:20;;;;;;;;;;;23.70;49.70;;;;;;1527941;76;779;-69
2021/11/03 06:34:22;;;;;;;;;;;23.80;49.80;;;;;;1527203;76;1127;-67
2021/11/03 06:36:24;;;;;;;;;;;23.80;49.80;;;;;;1516561;76;795;-67
2021/11/03 06:38:26;;;;;;;;;;;23.80;49.70;;;;;;1528282;76;802;-67
2021/11/03 06:40:28;;;;;;;;;;;23.90;49.60;;;;;;1525295;76;736;-67
2021/11/03 06:42:30;;;;;;;;;;;23.80;49.40;;;;;;1535437;76;1939;-68
2021/11/03 06:44:32;;;;;;;;;;;23.80;49.30;;;;;;1520200;76;1124;-67
2021/11/03 06:46:34;;;;;;;;;;;23.80;49.20;;;;;;1528432;76;752;-66
2021/11/03 06:48:36;;;;;;;;;;;23.80;49.20;;;;;;1528581;76;718;-68
2021/11/03 06:50:39;;;;;;;;;;;23.70;49.10;;;;;;1511652;76;712;-67
2021/11/03 06:52:41;;;;;;;;;;;23.80;49.10;;;;;;1524983;76;831;-67
2021/11/03 06:54:43;;;;;;;;;;;23.70;49.10;;;;;;1527780;76;1175;-68
2021/11/03 06:56:45;;;;;;;;;;;23.70;49.10;;;;;;1525875;76;787;-67
2021/11/03 06:58:47;;;;;;;;;;;23.70;49.00;;;;;;1528124;76;760;-67
2021/11/03 07:00:50;;;;;;;;;;;23.80;49.00;;;;;;1525746;76;723;-67
2021/11/03 07:02:51;;;;;;;;;;;23.70;49.00;;;;;;1526713;76;1944;-67
2021/11/03 07:04:53;;;;;;;;;;;23.80;49.00;;;;;;1530292;76;1133;-67
2021/11/03 07:06:56;;;;;;;;;;;23.70;48.90;;;;;;1508748;76;785;-67
2021/11/03 07:08:58;;;;;;;;;;;23.70;48.90;;;;;;1521838;76;832;-69
2021/11/03 07:11:00;;;;;;;;;;;23.70;48.80;;;;;;1525410;76;785;-67
2021/11/03 07:13:02;;;;;;;;;;;23.60;48.70;;;;;;1528848;76;729;-67
2021/11/03 07:15:04;;;;;;;;;;;23.70;48.90;;;;;;1519098;76;1137;-67
2021/11/03 07:17:11;;;;;;;;;;;23.70;48.90;;;;;;1512079;76;810;-67
2021/11/03 07:19:10;;;;;;;;;;;23.70;48.80;;;;;;1525938;76;1621;-67
2021/11/03 07:21:11;;;;;;;;;;;23.70;48.90;;;;;;1536367;76;684;-67
2021/11/03 07:23:14;;;;;;;;;;;23.70;48.90;;;;;;1512106;76;1946;-69
2021/11/03 07:25:18;;;;;;;;;;;23.60;48.70;;;;;;1523920;76;1008;-66
2021/11/03 07:27:20;;;;;;;;;;;23.60;48.60;;;;;;1532563;76;824;-67
2021/11/03 07:29:22;;;;;;;;;;;23.60;48.60;;;;;;1538037;76;737;-69
2021/11/03 07:31:24;;;;;;;;;;;23.70;48.70;;;;;;1513311;76;771;-67
2021/11/03 07:33:26;;;;;;;;;;;23.60;48.60;;;;;;1531129;76;1135;-67
2021/11/03 07:35:27;;;;;;;;;;;23.60;48.60;;;;;;1527973;76;746;-68
2021/11/03 07:37:29;;;;;;;;;;;23.60;48.60;;;;;;1517825;76;794;-67
2021/11/03 07:39:31;;;;;;;;;;;23.60;48.60;;;;;;1521932;76;742;-68
2021/11/03 07:41:34;;;;;;;;;;;23.60;48.60;;;;;;1531128;76;772;-68
2021/11/03 07:43:38;;;;;;;;;;;23.60;49.40;;;;;;1519096;76;1942;-68
2021/11/03 07:45:40;;;;;;;;;;;23.60;50.10;;;;;;1522596;76;715;-67
2021/11/03 07:47:42;;;;;;;;;;;23.60;50.20;;;;;;1522499;76;663;-68
2021/11/03 07:49:44;;;;;;;;;;;23.60;50.20;;;;;;1529307;76;738;-68
2021/11/03 07:51:45;;;;;;;;;;;23.80;50.10;;;;;;1527192;76;836;-66
2021/11/03 07:53:49;;;;;;;;;;;23.90;49.80;;;;;;1532853;76;1175;-69
2021/11/03 07:55:52;;;;;;;;;;;24.00;49.70;;;;;;1522067;76;697;-73
2021/11/03 07:57:54;;;;;;;;;;;24.00;49.70;;;;;;1521168;76;710;-73
2021/11/03 07:59:56;;;;;;;;;;;24.00;49.80;;;;;;1518796;76;799;-73
2021/11/03 08:01:58;;;;;;;;;;;23.90;49.80;;;;;;1518449;76;792;-73
2021/11/03 08:04:00;;;;;;;;;;;23.90;49.70;;;;;;1515319;76;1929;-73
2021/11/03 08:06:02;;;;;;;;;;;23.90;49.70;;;;;;1526765;76;728;-73
2021/11/03 08:08:07;;;;;;;;;;;23.90;49.70;;;;;;1527857;76;785;-74
2021/11/03 08:10:13;;;;;;;;;;;23.90;49.70;;;;;;1530424;76;1665;-74
2021/11/03 08:12:11;;;;;;;;;;;24.00;49.60;;;;;;1532946;76;1058;-73
2021/11/03 08:14:14;;;;;;;;;;;23.90;49.60;;;;;;1518976;76;1116;-73
2021/11/03 08:16:16;;;;;;;;;;;23.90;49.50;;;;;;1530114;76;644;-72
2021/11/03 08:18:19;;;;;;;;;;;24.00;49.40;;;;;;1525189;76;740;-73
2021/11/03 08:20:23;;;;;;;;;;;23.90;49.40;;;;;;1528133;76;704;-73
2021/11/03 08:22:25;;;;;;;;;;;23.90;49.40;;;;;;1515891;76;1929;-73
2021/11/03 08:24:27;;;;;;;;;;;23.90;49.40;;;;;;1532694;74;2066;-73
2021/11/03 08:26:29;;;;;;;;;;;23.90;49.30;;;;;;1548074;76;711;-73
2021/11/03 08:28:31;;;;;;;;;;;23.90;49.30;;;;;;1538160;75;693;-75
2021/11/03 08:30:33;;;;;;;;;;;23.90;49.30;;;;;;1546169;74;750;-71
2021/11/03 08:32:37;;;;;;;;;;;23.80;49.20;;;;;;1534577;75;726;-70
2021/11/03 08:34:38;;;;;;;;;;;23.90;49.20;;;;;;1534892;76;1202;-72
2021/11/03 08:36:40;;;;;;;;;;;23.90;49.20;;;;;;1538716;76;838;-71
2021/11/03 08:38:42;;;;;;;;;;;23.90;49.20;;;;;;1530847;76;680;-72
2021/11/03 08:40:44;;;;;;;;;;;23.90;49.20;;;;;;1552595;75;732;-74
2021/11/03 08:42:46;;;;;;;;;;;23.90;49.20;;;;;;1540649;76;1947;-74
2021/11/03 08:44:49;;;;;;;;;;;23.80;49.10;;;;;;1540408;76;1130;-74
2021/11/03 08:46:51;;;;;;;;;;;23.80;49.00;;;;;;1542364;76;734;-73
2021/11/03 08:48:55;;;;;;;;;;;23.90;49.20;;;;;;1542454;76;741;-72
2021/11/03 08:50:57;;;;;;;;;;;23.80;49.00;;;;;;1534561;76;678;-74
2021/11/03 08:52:59;;;;;;;;;;;23.80;49.10;;;;;;1533157;76;801;-72
2021/11/03 08:55:00;;;;;;;;;;;23.80;49.00;;;;;;1541647;76;1119;-72
2021/11/03 08:57:02;;;;;;;;;;;23.70;49.00;;;;;;1532331;76;639;-72
2021/11/03 08:59:05;;;;;;;;;;;23.70;49.00;;;;;;1538758;75;697;-73
2021/11/03 09:01:07;;;;;;;;;;;23.80;49.00;;;;;;1533006;76;667;-71
2021/11/03 09:03:09;;;;;;;;;;;23.80;49.00;;;;;;1542295;76;1935;-72
2021/11/03 09:05:11;;;;;;;;;;;23.80;48.90;;;;;;1532215;76;1130;-71
2021/11/03 09:07:13;;;;;;;;;;;23.70;48.90;;;;;;1541576;76;816;-72
2021/11/03 09:09:15;;;;;;;;;;;23.80;48.90;;;;;;1541042;76;798;-70
2021/11/03 09:11:20;;;;;;;;;;;23.70;48.90;;;;;;1538039;75;732;-73
2021/11/03 09:13:26;;;;;;;;;;;23.80;48.90;;;;;;1542283;75;784;-73
2021/11/03 09:15:28;;;;;;;;;;;23.70;48.90;;;;;;1534366;75;1164;-71
2021/11/03 09:17:30;;;;;;;;;;;23.70;48.90;;;;;;1532172;75;807;-73
2021/11/03 09:19:31;;;;;;;;;;;23.70;48.90;;;;;;1540554;76;671;-71
2021/11/03 09:21:33;;;;;;;;;;;23.70;48.90;;;;;;1543537;75;784;-71
2021/11/03 09:23:36;;;;;;;;;;;23.70;48.90;;;;;;1540225;76;1935;-71
2021/11/03 09:25:37;;;;;;;;;;;23.70;48.90;;;;;;1533578;76;1127;-71
2021/11/03 09:27:39;;;;;;;;;;;23.70;48.90;;;;;;1542454;76;836;-71
2021/11/03 09:29:46;;;;;;;;;;;23.70;48.90;;;;;;1547722;76;776;-72
2021/11/03 09:31:48;;;;;;;;;;;23.60;48.70;;;;;;1538888;76;2010;-71
2021/11/03 09:33:50;;;;;;;;;;;23.70;48.90;;;;;;1532716;76;1166;-71
2021/11/03 09:35:52;;;;;;;;;;;23.60;48.70;;;;;;1533907;76;781;-72
2021/11/03 09:37:56;;;;;;;;;;;23.70;48.90;;;;;;1530934;76;780;-73
2021/11/03 09:39:57;;;;;;;;;;;23.70;48.80;;;;;;1532969;76;1662;-72
2021/11/03 09:41:59;;;;;;;;;;;23.70;48.90;;;;;;1531173;76;752;-71
2021/11/03 09:44:03;;;;;;;;;;;23.70;48.90;;;;;;1545474;76;1946;-71
2021/11/03 09:46:06;;;;;;;;;;;23.70;48.80;;;;;;1532866;76;768;-73
2021/11/03 09:48:19;;;;;;;;;;;23.70;48.40;;;;;;1516022;76;1519;-72
2021/11/03 09:50:21;;;;;;;;;;;23.70;48.10;;;;;;1531214;76;729;-71
2021/11/03 09:52:25;;;;;;;;;;;23.70;47.00;;;;;;1541982;75;764;-71
2021/11/03 09:54:28;;;;;;;;;;;23.60;46.00;;;;;;1535202;75;1129;-72
2021/11/03 09:56:41;;;;;;;;;;;23.60;45.50;;;;;;1531432;76;763;-71
2021/11/03 09:58:44;;;;;;;;;;;23.60;44.80;;;;;;1535114;76;1206;-71
2021/11/03 10:00:48;;;;;;;;;;;23.50;44.50;;;;;;1534248;76;1913;-71
2021/11/03 10:02:54;;;;;;;;;;;23.50;44.20;;;;;;1539111;76;717;-71
2021/11/03 10:05:00;;;;;;;;;;;23.40;43.60;;;;;;1530293;76;1936;-71
2021/11/03 10:07:22;;;;;;;;;;;23.40;43.40;;;;;;1542046;76;734;-71
2021/11/03 10:09:24;;;;;;;;;;;23.40;43.10;;;;;;1532706;76;710;-71
2021/11/03 10:11:33;;;;;;;;;;;23.40;43.10;;;;;;1541086;76;716;-71
2021/11/03 10:13:37;;;;;;;;;;;23.30;42.50;;;;;;1537755;75;964;-71
2021/11/03 10:15:39;;;;;;;;;;;23.30;42.10;;;;;;1553639;75;1155;-71
2021/11/03 10:17:40;;;;;;;;;;;23.30;41.70;;;;;;1533254;76;678;-70
2021/11/03 10:19:42;;;;;;;;;;;23.20;40.80;;;;;;1531238;75;737;-72
2021/11/03 10:21:45;;;;;;;;;;;23.20;41.30;;;;;;1541177;76;809;-71
2021/11/03 10:23:54;;;;;;;;;;;23.20;41.60;;;;;;1530659;76;1936;-70
2021/11/03 10:26:02;;;;;;;;;;;23.10;41.50;;;;;;1538881;76;822;-72
2021/11/03 10:28:04;;;;;;;;;;;23.10;41.50;;;;;;1532743;76;1909;-70
2021/11/03 10:30:22;;;;;;;;;;;23.10;41.50;;;;;;1540562;76;858;-71
2021/11/03 10:32:26;;;;;;;;;;;23.10;41.20;;;;;;1530051;76;750;-70
2021/11/03 10:34:29;;;;;;;;;;;23.00;40.60;;;;;;1535358;76;1181;-72
2021/11/03 10:36:36;;;;;;;;;;;23.00;40.70;;;;;;1543651;76;678;-72
2021/11/03 10:38:42;;;;;;;;;;;23.10;40.80;;;;;;1542270;76;1820;-71
2021/11/03 10:40:58;;;;;;;;;;;23.00;40.60;;;;;;1538431;76;743;-70
2021/11/03 10:43:02;;;;;;;;;;;23.00;40.50;;;;;;1531857;76;755;-73
2021/11/03 10:45:11;;;;;;;;;;;22.90;40.10;;;;;;1537362;76;1893;-71
2021/11/03 10:47:15;;;;;;;;;;;22.90;40.00;;;;;;1534349;76;652;-71
2021/11/03 10:49:20;;;;;;;;;;;22.80;39.70;;;;;;1542941;76;676;-70
2021/11/03 10:51:26;;;;;;;;;;;22.90;40.00;;;;;;1535720;76;1349;-71
2021/11/03 10:53:30;;;;;;;;;;;22.90;40.10;;;;;;1540789;76;1036;-72
2021/11/03 10:55:36;;;;;;;;;;;22.90;39.90;;;;;;1536054;76;1111;-71
2021/11/03 10:57:40;;;;;;;;;;;22.80;39.50;;;;;;1541369;76;794;-71
2021/11/03 10:59:43;;;;;;;;;;;22.80;39.40;;;;;;1534818;76;749;-71
2021/11/03 11:01:45;;;;;;;;;;;22.80;39.70;;;;;;1551707;76;1082;-69
2021/11/03 11:04:04;;;;;;;;;;;22.70;39.80;;;;;;1542232;75;1917;-71
2021/11/03 11:06:11;;;;;;;;;;;22.70;39.50;;;;;;1546012;75;778;-72
2021/11/03 11:08:17;;;;;;;;;;;22.70;39.80;;;;;;1543495;75;779;-72
2021/11/03 11:10:26;;;;;;;;;;;22.70;39.70;;;;;;1538153;76;653;-71
2021/11/03 11:12:32;;;;;;;;;;;22.60;39.40;;;;;;1535824;75;1548;-71
2021/11/03 11:14:34;;;;;;;;;;;22.60;39.20;;;;;;1530955;76;1126;-72
2021/11/03 11:16:41;;;;;;;;;;;22.60;39.00;;;;;;1533960;76;739;-70
2021/11/03 11:18:48;;;;;;;;;;;22.60;38.60;;;;;;1531686;76;796;-70
2021/11/03 11:20:52;;;;;;;;;;;22.60;39.10;;;;;;1532005;76;783;-70
2021/11/03 11:22:55;;;;;;;;;;;22.50;39.20;;;;;;1531379;76;798;-71
2021/11/03 11:24:59;;;;;;;;;;;22.50;39.10;;;;;;1543661;76;1919;-70
2021/11/03 11:27:06;;;;;;;;;;;22.50;39.20;;;;;;1535319;76;823;-70
2021/11/03 11:29:26;;;;;;;;;;;22.40;39.30;;;;;;1540061;76;2270;-70
2021/11/03 11:31:47;;;;;;;;;;;22.50;39.40;;;;;;1532689;76;777;-70
2021/11/03 11:34:03;;;;;;;;;;;22.50;39.20;;;;;;1535026;76;1158;-70
2021/11/03 11:36:12;;;;;;;;;;;22.40;39.00;;;;;;1534532;76;987;-70
2021/11/03 11:38:16;;;;;;;;;;;22.30;39.60;;;;;;1533611;76;802;-70
2021/11/03 11:40:37;;;;;;;;;;;22.40;39.80;;;;;;1539493;75;782;-70
2021/11/03 11:42:46;;;;;;;;;;;22.30;36.50;;;;;;1531258;76;657;-70
2021/11/03 11:44:53;;;;;;;;;;;21.50;36.60;;;;;;1543237;76;1935;-70
2021/11/03 11:46:56;;;;;;;;;;;21.40;38.30;;;;;;1526501;76;1531;-70
2021/11/03 11:49:16;;;;;;;;;;;21.40;39.00;;;;;;1543803;76;707;-70
2021/11/03 11:51:25;;;;;;;;;;;21.50;39.90;;;;;;1530657;76;730;-71
2021/11/03 11:53:32;;;;;;;;;;;21.60;39.50;;;;;;1540305;76;769;-70
2021/11/03 11:55:35;;;;;;;;;;;21.70;39.20;;;;;;1541816;75;1118;-70
2021/11/03 11:57:37;;;;;;;;;;;21.70;39.50;;;;;;1539769;76;782;-70
2021/11/03 11:59:49;;;;;;;;;;;21.70;39.60;;;;;;1532959;76;738;-72
2021/11/03 12:01:54;;;;;;;;;;;21.70;40.00;;;;;;1534179;76;1862;-70
2021/11/03 12:04:00;;;;;;;;;;;21.70;38.90;;;;;;1533958;76;1921;-70
2021/11/03 12:06:07;;;;;;;;;;;21.70;38.00;;;;;;1533982;75;763;-70
2021/11/03 12:08:11;;;;;;;;;;;21.70;38.60;;;;;;1544392;76;696;-70
2021/11/03 12:10:14;;;;;;;;;;;21.70;38.80;;;;;;1535162;76;1034;-70
2021/11/03 12:12:21;;;;;;;;;;;21.70;38.80;;;;;;1534628;75;750;-69
2021/11/03 12:14:39;;;;;;;;;;;21.60;38.90;;;;;;1532422;76;2022;-69